Harwood, Washington
Current Conditions -  °F | °C
As of 3:53 AM on Monday 26 Jan 2015 (Local Time) from KYKM Reporting Station
Moderate Fog Moderate Fog  
Wind Chill: 36°   Ceiling: 200
Heat Index: 36°   Visibility: 0.25mi
Dew Point: 34°   Wind: 0mph
Humidity: 93%   Direction: NA
Pressure: 30.11"   Gusts: NA
Location:  46.5979°N, 120.534°W
Report Text: KYKM 261153Z AUTO 00000KT 1/4SM R27/1600V2000FT FG VV002 02/01 A3011 RMK AO2 SLP204 T00220011 10033 20017 56008 $
Loading
Personal Weather Stations






























Interactive Weather Map New forecast layout! Learn more

10-Day Weather Forecast

Advertisements
Track Severe Weather on mobile